sensor_id;sensor_type;location;lat;lon;timestamp;P1;durP1;ratioP1;P2;durP2;ratioP2
22768;SDS011;13001;51.968;5.918;2023-04-24T00:01:12;568.10;;;527.77;;
22768;SDS011;13001;51.968;5.918;2023-04-24T00:03:40;571.72;;;532.27;;
22768;SDS011;13001;51.968;5.918;2023-04-24T00:06:07;568.97;;;529.33;;
22768;SDS011;13001;51.968;5.918;2023-04-24T00:08:35;558.00;;;519.33;;
22768;SDS011;13001;51.968;5.918;2023-04-24T00:11:03;570.17;;;529.83;;
22768;SDS011;13001;51.968;5.918;2023-04-24T00:13:31;563.12;;;523.65;;
22768;SDS011;13001;51.968;5.918;2023-04-24T00:15:58;570.25;;;530.60;;
22768;SDS011;13001;51.968;5.918;2023-04-24T00:18:25;553.20;;;515.08;;
22768;SDS011;13001;51.968;5.918;2023-04-24T00:20:53;558.77;;;520.60;;
22768;SDS011;13001;51.968;5.918;2023-04-24T00:23:20;559.77;;;521.27;;
22768;SDS011;13001;51.968;5.918;2023-04-24T00:25:47;565.25;;;526.42;;
22768;SDS011;13001;51.968;5.918;2023-04-24T00:28:14;555.85;;;517.75;;
22768;SDS011;13001;51.968;5.918;2023-04-24T00:30:42;560.63;;;522.08;;
22768;SDS011;13001;51.968;5.918;2023-04-24T00:33:09;550.63;;;512.63;;
22768;SDS011;13001;51.968;5.918;2023-04-24T00:35:36;561.40;;;521.90;;
22768;SDS011;13001;51.968;5.918;2023-04-24T00:38:03;565.70;;;526.42;;
22768;SDS011;13001;51.968;5.918;2023-04-24T00:40:31;569.47;;;529.72;;
22768;SDS011;13001;51.968;5.918;2023-04-24T00:42:58;573.95;;;534.50;;
22768;SDS011;13001;51.968;5.918;2023-04-24T00:45:26;558.70;;;520.00;;
22768;SDS011;13001;51.968;5.918;2023-04-24T00:47:54;570.92;;;530.60;;
22768;SDS011;13001;51.968;5.918;2023-04-24T00:50:23;559.42;;;520.52;;
22768;SDS011;13001;51.968;5.918;2023-04-24T00:52:51;584.20;;;542.47;;
22768;SDS011;13001;51.968;5.918;2023-04-24T00:55:18;556.42;;;516.23;;
22768;SDS011;13001;51.968;5.918;2023-04-24T00:57:46;551.30;;;511.70;;
22768;SDS011;13001;51.968;5.918;2023-04-24T01:00:13;556.37;;;516.33;;
22768;SDS011;13001;51.968;5.918;2023-04-24T01:02:43;566.75;;;526.33;;
22768;SDS011;13001;51.968;5.918;2023-04-24T01:05:11;564.32;;;524.33;;
22768;SDS011;13001;51.968;5.918;2023-04-24T01:07:39;559.10;;;519.95;;
22768;SDS011;13001;51.968;5.918;2023-04-24T01:10:09;569.67;;;529.23;;
22768;SDS011;13001;51.968;5.918;2023-04-24T01:12:36;565.58;;;526.05;;
22768;SDS011;13001;51.968;5.918;2023-04-24T01:15:04;570.12;;;529.98;;
22768;SDS011;13001;51.968;5.918;2023-04-24T01:17:33;560.85;;;521.65;;
22768;SDS011;13001;51.968;5.918;2023-04-24T01:20:00;569.17;;;529.23;;
22768;SDS011;13001;51.968;5.918;2023-04-24T01:22:28;573.97;;;533.65;;
22768;SDS011;13001;51.968;5.918;2023-04-24T01:24:55;564.08;;;523.83;;
22768;SDS011;13001;51.968;5.918;2023-04-24T01:27:23;575.85;;;534.25;;
22768;SDS011;13001;51.968;5.918;2023-04-24T01:29:50;582.57;;;540.57;;
22768;SDS011;13001;51.968;5.918;2023-04-24T01:32:18;587.85;;;545.10;;
22768;SDS011;13001;51.968;5.918;2023-04-24T01:34:45;570.80;;;528.93;;
22768;SDS011;13001;51.968;5.918;2023-04-24T01:37:13;566.40;;;525.10;;
22768;SDS011;13001;51.968;5.918;2023-04-24T01:39:40;585.00;;;542.00;;
22768;SDS011;13001;51.968;5.918;2023-04-24T01:42:07;590.47;;;547.25;;
22768;SDS011;13001;51.968;5.918;2023-04-24T01:44:35;574.95;;;533.33;;
22768;SDS011;13001;51.968;5.918;2023-04-24T01:47:02;580.95;;;538.33;;
22768;SDS011;13001;51.968;5.918;2023-04-24T01:49:29;580.92;;;538.50;;
22768;SDS011;13001;51.968;5.918;2023-04-24T01:51:57;580.98;;;538.15;;
22768;SDS011;13001;51.968;5.918;2023-04-24T01:54:24;580.60;;;538.00;;
22768;SDS011;13001;51.968;5.918;2023-04-24T01:56:51;584.75;;;541.85;;
22768;SDS011;13001;51.968;5.918;2023-04-24T01:59:18;584.87;;;542.42;;
22768;SDS011;13001;51.968;5.918;2023-04-24T02:01:47;585.27;;;542.53;;
22768;SDS011;13001;51.968;5.918;2023-04-24T02:04:14;587.35;;;545.08;;
22768;SDS011;13001;51.968;5.918;2023-04-24T02:06:42;583.43;;;541.10;;
22768;SDS011;13001;51.968;5.918;2023-04-24T02:09:09;581.35;;;539.00;;
22768;SDS011;13001;51.968;5.918;2023-04-24T02:11:38;583.50;;;541.10;;
22768;SDS011;13001;51.968;5.918;2023-04-24T02:14:05;583.67;;;541.08;;
22768;SDS011;13001;51.968;5.918;2023-04-24T02:16:33;582.33;;;539.90;;
22768;SDS011;13001;51.968;5.918;2023-04-24T02:19:02;586.20;;;543.15;;
22768;SDS011;13001;51.968;5.918;2023-04-24T02:21:29;574.67;;;532.77;;
22768;SDS011;13001;51.968;5.918;2023-04-24T02:23:57;582.62;;;539.40;;
22768;SDS011;13001;51.968;5.918;2023-04-24T02:26:24;588.72;;;545.73;;
22768;SDS011;13001;51.968;5.918;2023-04-24T02:28:52;588.37;;;544.60;;
22768;SDS011;13001;51.968;5.918;2023-04-24T02:31:19;581.27;;;537.88;;
22768;SDS011;13001;51.968;5.918;2023-04-24T02:33:46;585.80;;;542.47;;
22768;SDS011;13001;51.968;5.918;2023-04-24T02:36:14;595.30;;;551.00;;
22768;SDS011;13001;51.968;5.918;2023-04-24T02:38:41;580.08;;;537.02;;
22768;SDS011;13001;51.968;5.918;2023-04-24T02:41:08;591.27;;;546.85;;
22768;SDS011;13001;51.968;5.918;2023-04-24T02:43:37;588.65;;;544.75;;
22768;SDS011;13001;51.968;5.918;2023-04-24T02:46:04;597.83;;;553.88;;
22768;SDS011;13001;51.968;5.918;2023-04-24T02:48:31;586.05;;;543.02;;
22768;SDS011;13001;51.968;5.918;2023-04-24T02:50:59;580.03;;;537.10;;
22768;SDS011;13001;51.968;5.918;2023-04-24T02:53:26;581.95;;;538.85;;
22768;SDS011;13001;51.968;5.918;2023-04-24T02:55:53;580.77;;;538.33;;
22768;SDS011;13001;51.968;5.918;2023-04-24T02:58:20;584.67;;;541.35;;
22768;SDS011;13001;51.968;5.918;2023-04-24T03:00:48;584.65;;;541.52;;
22768;SDS011;13001;51.968;5.918;2023-04-24T03:03:15;583.40;;;540.43;;
22768;SDS011;13001;51.968;5.918;2023-04-24T03:05:42;580.10;;;537.12;;
22768;SDS011;13001;51.968;5.918;2023-04-24T03:08:10;583.80;;;540.95;;
22768;SDS011;13001;51.968;5.918;2023-04-24T03:10:37;591.23;;;547.63;;
22768;SDS011;13001;51.968;5.918;2023-04-24T03:13:04;592.00;;;548.85;;
22768;SDS011;13001;51.968;5.918;2023-04-24T03:15:31;577.90;;;535.87;;
22768;SDS011;13001;51.968;5.918;2023-04-24T03:17:59;579.00;;;537.00;;
22768;SDS011;13001;51.968;5.918;2023-04-24T03:20:26;585.02;;;543.13;;
22768;SDS011;13001;51.968;5.918;2023-04-24T03:22:54;586.28;;;543.13;;
22768;SDS011;13001;51.968;5.918;2023-04-24T03:25:22;577.28;;;535.45;;
22768;SDS011;13001;51.968;5.918;2023-04-24T03:27:49;579.70;;;537.27;;
22768;SDS011;13001;51.968;5.918;2023-04-24T03:30:16;582.25;;;540.08;;
22768;SDS011;13001;51.968;5.918;2023-04-24T03:32:44;584.17;;;541.77;;
22768;SDS011;13001;51.968;5.918;2023-04-24T03:35:11;574.27;;;532.15;;
22768;SDS011;13001;51.968;5.918;2023-04-24T03:37:38;575.05;;;533.25;;
22768;SDS011;13001;51.968;5.918;2023-04-24T03:40:06;583.73;;;541.20;;
22768;SDS011;13001;51.968;5.918;2023-04-24T03:42:34;575.42;;;533.77;;
22768;SDS011;13001;51.968;5.918;2023-04-24T03:45:01;573.25;;;531.40;;
22768;SDS011;13001;51.968;5.918;2023-04-24T03:47:29;579.75;;;537.12;;
22768;SDS011;13001;51.968;5.918;2023-04-24T03:49:56;572.58;;;530.98;;
22768;SDS011;13001;51.968;5.918;2023-04-24T03:52:23;577.70;;;535.55;;
22768;SDS011;13001;51.968;5.918;2023-04-24T03:54:50;576.40;;;534.15;;
22768;SDS011;13001;51.968;5.918;2023-04-24T03:57:18;579.42;;;536.67;;
22768;SDS011;13001;51.968;5.918;2023-04-24T03:59:45;574.55;;;531.90;;
22768;SDS011;13001;51.968;5.918;2023-04-24T04:02:12;576.27;;;533.60;;
22768;SDS011;13001;51.968;5.918;2023-04-24T04:04:39;569.25;;;527.28;;
22768;SDS011;13001;51.968;5.918;2023-04-24T04:07:07;576.95;;;533.60;;
22768;SDS011;13001;51.968;5.918;2023-04-24T04:09:34;589.05;;;544.05;;
22768;SDS011;13001;51.968;5.918;2023-04-24T04:12:02;591.45;;;546.77;;
22768;SDS011;13001;51.968;5.918;2023-04-24T04:14:29;583.55;;;539.30;;
22768;SDS011;13001;51.968;5.918;2023-04-24T04:16:56;580.42;;;536.65;;
22768;SDS011;13001;51.968;5.918;2023-04-24T04:19:23;589.23;;;544.62;;
22768;SDS011;13001;51.968;5.918;2023-04-24T04:21:51;569.07;;;526.03;;
22768;SDS011;13001;51.968;5.918;2023-04-24T04:24:19;578.58;;;534.45;;
22768;SDS011;13001;51.968;5.918;2023-04-24T04:26:50;577.20;;;532.83;;
22768;SDS011;13001;51.968;5.918;2023-04-24T04:29:18;587.35;;;542.40;;
22768;SDS011;13001;51.968;5.918;2023-04-24T04:31:45;598.13;;;552.70;;
22768;SDS011;13001;51.968;5.918;2023-04-24T04:34:12;589.37;;;543.83;;
22768;SDS011;13001;51.968;5.918;2023-04-24T04:36:40;574.25;;;530.03;;
22768;SDS011;13001;51.968;5.918;2023-04-24T04:39:08;573.47;;;529.62;;
22768;SDS011;13001;51.968;5.918;2023-04-24T04:41:35;576.60;;;532.35;;
22768;SDS011;13001;51.968;5.918;2023-04-24T04:44:05;569.20;;;525.62;;
22768;SDS011;13001;51.968;5.918;2023-04-24T04:46:32;570.93;;;527.63;;
22768;SDS011;13001;51.968;5.918;2023-04-24T04:49:01;570.15;;;527.00;;
22768;SDS011;13001;51.968;5.918;2023-04-24T04:51:29;570.67;;;527.83;;
22768;SDS011;13001;51.968;5.918;2023-04-24T04:53:57;575.58;;;531.13;;
22768;SDS011;13001;51.968;5.918;2023-04-24T04:56:24;569.13;;;525.98;;
22768;SDS011;13001;51.968;5.918;2023-04-24T04:58:51;570.17;;;527.13;;
22768;SDS011;13001;51.968;5.918;2023-04-24T05:01:19;570.23;;;527.67;;
22768;SDS011;13001;51.968;5.918;2023-04-24T05:03:47;575.48;;;532.92;;
22768;SDS011;13001;51.968;5.918;2023-04-24T05:06:14;584.25;;;541.27;;
22768;SDS011;13001;51.968;5.918;2023-04-24T05:08:42;592.30;;;548.58;;
22768;SDS011;13001;51.968;5.918;2023-04-24T05:11:09;584.80;;;542.03;;
22768;SDS011;13001;51.968;5.918;2023-04-24T05:13:36;588.12;;;545.40;;
22768;SDS011;13001;51.968;5.918;2023-04-24T05:16:03;601.73;;;557.67;;
22768;SDS011;13001;51.968;5.918;2023-04-24T05:18:31;589.30;;;547.43;;
22768;SDS011;13001;51.968;5.918;2023-04-24T05:20:58;602.10;;;559.45;;
22768;SDS011;13001;51.968;5.918;2023-04-24T05:23:25;630.42;;;586.47;;
22768;SDS011;13001;51.968;5.918;2023-04-24T05:25:52;607.17;;;564.90;;
22768;SDS011;13001;51.968;5.918;2023-04-24T05:28:20;601.85;;;559.35;;
22768;SDS011;13001;51.968;5.918;2023-04-24T05:30:47;597.05;;;554.55;;
22768;SDS011;13001;51.968;5.918;2023-04-24T05:33:14;601.37;;;558.75;;
22768;SDS011;13001;51.968;5.918;2023-04-24T05:35:41;603.10;;;560.70;;
22768;SDS011;13001;51.968;5.918;2023-04-24T05:38:11;585.00;;;543.93;;
22768;SDS011;13001;51.968;5.918;2023-04-24T05:40:38;582.00;;;541.30;;
22768;SDS011;13001;51.968;5.918;2023-04-24T05:43:06;578.50;;;537.33;;
22768;SDS011;13001;51.968;5.918;2023-04-24T05:45:33;585.00;;;543.33;;
22768;SDS011;13001;51.968;5.918;2023-04-24T05:48:02;583.15;;;541.73;;
22768;SDS011;13001;51.968;5.918;2023-04-24T05:50:30;558.40;;;518.48;;
22768;SDS011;13001;51.968;5.918;2023-04-24T05:52:57;584.75;;;542.17;;
22768;SDS011;13001;51.968;5.918;2023-04-24T05:55:24;571.60;;;530.55;;
22768;SDS011;13001;51.968;5.918;2023-04-24T05:57:52;569.67;;;529.03;;
22768;SDS011;13001;51.968;5.918;2023-04-24T06:00:19;564.27;;;523.90;;
22768;SDS011;13001;51.968;5.918;2023-04-24T06:02:46;557.47;;;517.65;;
22768;SDS011;13001;51.968;5.918;2023-04-24T06:05:14;566.17;;;525.63;;
22768;SDS011;13001;51.968;5.918;2023-04-24T06:07:41;554.12;;;513.85;;
22768;SDS011;13001;51.968;5.918;2023-04-24T06:10:08;563.77;;;523.25;;
22768;SDS011;13001;51.968;5.918;2023-04-24T06:12:37;577.30;;;536.17;;
22768;SDS011;13001;51.968;5.918;2023-04-24T06:15:04;575.55;;;534.10;;
22768;SDS011;13001;51.968;5.918;2023-04-24T06:17:32;565.98;;;525.33;;
22768;SDS011;13001;51.968;5.918;2023-04-24T06:19:59;568.67;;;527.92;;
22768;SDS011;13001;51.968;5.918;2023-04-24T06:22:26;575.83;;;534.77;;
22768;SDS011;13001;51.968;5.918;2023-04-24T06:24:53;556.83;;;517.83;;
22768;SDS011;13001;51.968;5.918;2023-04-24T06:27:21;560.27;;;521.03;;
22768;SDS011;13001;51.968;5.918;2023-04-24T06:29:48;564.45;;;524.55;;
22768;SDS011;13001;51.968;5.918;2023-04-24T06:32:21;561.47;;;522.80;;
22768;SDS011;13001;51.968;5.918;2023-04-24T06:34:49;553.58;;;515.58;;
22768;SDS011;13001;51.968;5.918;2023-04-24T06:37:16;554.92;;;516.12;;
22768;SDS011;13001;51.968;5.918;2023-04-24T06:39:43;537.85;;;501.67;;
22768;SDS011;13001;51.968;5.918;2023-04-24T06:42:10;527.28;;;492.80;;
22768;SDS011;13001;51.968;5.918;2023-04-24T06:44:38;509.63;;;477.05;;
22768;SDS011;13001;51.968;5.918;2023-04-24T06:47:11;524.00;;;490.05;;
22768;SDS011;13001;51.968;5.918;2023-04-24T06:49:36;493.90;;;463.03;;
22768;SDS011;13001;51.968;5.918;2023-04-24T06:52:04;471.70;;;443.63;;
22768;SDS011;13001;51.968;5.918;2023-04-24T06:54:31;446.77;;;420.52;;
22768;SDS011;13001;51.968;5.918;2023-04-24T06:56:59;445.80;;;419.67;;
22768;SDS011;13001;51.968;5.918;2023-04-24T06:59:27;447.20;;;421.05;;
22768;SDS011;13001;51.968;5.918;2023-04-24T07:01:54;442.42;;;416.38;;
22768;SDS011;13001;51.968;5.918;2023-04-24T07:04:22;447.05;;;420.75;;
22768;SDS011;13001;51.968;5.918;2023-04-24T07:06:51;445.25;;;418.95;;
22768;SDS011;13001;51.968;5.918;2023-04-24T07:09:20;425.90;;;400.98;;
22768;SDS011;13001;51.968;5.918;2023-04-24T07:11:48;412.18;;;387.95;;
22768;SDS011;13001;51.968;5.918;2023-04-24T07:14:15;417.15;;;392.32;;
22768;SDS011;13001;51.968;5.918;2023-04-24T07:16:43;394.60;;;371.75;;
22768;SDS011;13001;51.968;5.918;2023-04-24T07:19:12;387.60;;;365.02;;
22768;SDS011;13001;51.968;5.918;2023-04-24T07:21:40;394.20;;;371.50;;
22768;SDS011;13001;51.968;5.918;2023-04-24T07:24:08;391.52;;;368.42;;
22768;SDS011;13001;51.968;5.918;2023-04-24T07:26:37;385.22;;;362.93;;
22768;SDS011;13001;51.968;5.918;2023-04-24T07:29:05;396.50;;;373.40;;
22768;SDS011;13001;51.968;5.918;2023-04-24T07:31:34;405.95;;;382.23;;
22768;SDS011;13001;51.968;5.918;2023-04-24T07:34:01;404.72;;;380.92;;
22768;SDS011;13001;51.968;5.918;2023-04-24T07:36:28;412.23;;;387.95;;
22768;SDS011;13001;51.968;5.918;2023-04-24T07:38:56;410.65;;;386.48;;
22768;SDS011;13001;51.968;5.918;2023-04-24T07:41:23;405.50;;;381.80;;
22768;SDS011;13001;51.968;5.918;2023-04-24T07:43:51;403.88;;;380.27;;
22768;SDS011;13001;51.968;5.918;2023-04-24T07:46:19;424.60;;;398.95;;
22768;SDS011;13001;51.968;5.918;2023-04-24T07:48:47;426.80;;;400.57;;
22768;SDS011;13001;51.968;5.918;2023-04-24T07:51:14;459.53;;;430.40;;
22768;SDS011;13001;51.968;5.918;2023-04-24T07:53:42;489.00;;;457.25;;
22768;SDS011;13001;51.968;5.918;2023-04-24T07:56:10;477.10;;;445.97;;
22768;SDS011;13001;51.968;5.918;2023-04-24T07:58:37;477.37;;;446.00;;
22768;SDS011;13001;51.968;5.918;2023-04-24T08:01:05;477.62;;;446.15;;
22768;SDS011;13001;51.968;5.918;2023-04-24T08:03:32;494.10;;;461.17;;
22768;SDS011;13001;51.968;5.918;2023-04-24T08:05:59;492.83;;;460.05;;
22768;SDS011;13001;51.968;5.918;2023-04-24T08:08:28;492.98;;;460.25;;
22768;SDS011;13001;51.968;5.918;2023-04-24T08:10:55;483.12;;;451.18;;
22768;SDS011;13001;51.968;5.918;2023-04-24T08:13:23;473.90;;;442.77;;
22768;SDS011;13001;51.968;5.918;2023-04-24T08:15:50;455.15;;;425.77;;
22768;SDS011;13001;51.968;5.918;2023-04-24T08:18:17;447.67;;;419.02;;
22768;SDS011;13001;51.968;5.918;2023-04-24T08:20:44;455.27;;;425.83;;
22768;SDS011;13001;51.968;5.918;2023-04-24T08:23:12;426.15;;;399.05;;
22768;SDS011;13001;51.968;5.918;2023-04-24T08:25:39;446.60;;;417.42;;
22768;SDS011;13001;51.968;5.918;2023-04-24T08:28:06;441.83;;;412.93;;
22768;SDS011;13001;51.968;5.918;2023-04-24T08:30:36;461.45;;;430.33;;
22768;SDS011;13001;51.968;5.918;2023-04-24T08:33:04;441.18;;;411.98;;
22768;SDS011;13001;51.968;5.918;2023-04-24T08:35:31;414.25;;;387.30;;
22768;SDS011;13001;51.968;5.918;2023-04-24T08:37:59;437.12;;;408.50;;
22768;SDS011;13001;51.968;5.918;2023-04-24T08:40:27;444.17;;;414.27;;
22768;SDS011;13001;51.968;5.918;2023-04-24T08:42:56;452.70;;;422.25;;
22768;SDS011;13001;51.968;5.918;2023-04-24T08:45:24;445.57;;;415.87;;
22768;SDS011;13001;51.968;5.918;2023-04-24T08:47:53;464.87;;;433.70;;
22768;SDS011;13001;51.968;5.918;2023-04-24T08:50:25;450.32;;;420.35;;
22768;SDS011;13001;51.968;5.918;2023-04-24T08:52:52;458.97;;;428.23;;
22768;SDS011;13001;51.968;5.918;2023-04-24T08:55:20;456.07;;;426.07;;
22768;SDS011;13001;51.968;5.918;2023-04-24T08:57:51;449.37;;;419.80;;
22768;SDS011;13001;51.968;5.918;2023-04-24T09:00:22;451.67;;;422.02;;
22768;SDS011;13001;51.968;5.918;2023-04-24T09:02:49;426.65;;;399.50;;
22768;SDS011;13001;51.968;5.918;2023-04-24T09:05:17;434.77;;;407.15;;
22768;SDS011;13001;51.968;5.918;2023-04-24T09:07:54;432.95;;;405.52;;
22768;SDS011;13001;51.968;5.918;2023-04-24T09:10:19;424.85;;;397.90;;
22768;SDS011;13001;51.968;5.918;2023-04-24T09:12:47;397.33;;;372.95;;
22768;SDS011;13001;51.968;5.918;2023-04-24T09:15:14;408.43;;;382.27;;
22768;SDS011;13001;51.968;5.918;2023-04-24T09:17:42;420.50;;;393.73;;
22768;SDS011;13001;51.968;5.918;2023-04-24T09:20:10;437.68;;;409.33;;
22768;SDS011;13001;51.968;5.918;2023-04-24T09:22:37;428.38;;;401.02;;
22768;SDS011;13001;51.968;5.918;2023-04-24T09:25:10;420.40;;;393.93;;
22768;SDS011;13001;51.968;5.918;2023-04-24T09:27:34;389.93;;;365.20;;
22768;SDS011;13001;51.968;5.918;2023-04-24T09:30:03;377.25;;;354.38;;
22768;SDS011;13001;51.968;5.918;2023-04-24T09:32:31;366.38;;;343.45;;
22768;SDS011;13001;51.968;5.918;2023-04-24T09:35:09;365.37;;;342.60;;
22768;SDS011;13001;51.968;5.918;2023-04-24T09:37:41;358.23;;;335.80;;
22768;SDS011;13001;51.968;5.918;2023-04-24T09:40:16;393.55;;;367.55;;
22768;SDS011;13001;51.968;5.918;2023-04-24T09:42:54;410.07;;;382.45;;
22768;SDS011;13001;51.968;5.918;2023-04-24T09:45:13;454.57;;;422.67;;
22768;SDS011;13001;51.968;5.918;2023-04-24T09:47:41;452.60;;;421.00;;
22768;SDS011;13001;51.968;5.918;2023-04-24T09:50:09;453.73;;;422.87;;
22768;SDS011;13001;51.968;5.918;2023-04-24T09:52:39;459.27;;;428.45;;
22768;SDS011;13001;51.968;5.918;2023-04-24T09:55:10;451.50;;;420.85;;
22768;SDS011;13001;51.968;5.918;2023-04-24T09:57:34;451.98;;;421.53;;
22768;SDS011;13001;51.968;5.918;2023-04-24T10:00:01;480.52;;;447.48;;
22768;SDS011;13001;51.968;5.918;2023-04-24T10:02:30;483.75;;;451.65;;
22768;SDS011;13001;51.968;5.918;2023-04-24T10:04:58;508.40;;;474.60;;
22768;SDS011;13001;51.968;5.918;2023-04-24T10:07:26;523.10;;;488.37;;
22768;SDS011;13001;51.968;5.918;2023-04-24T10:09:54;567.20;;;529.65;;
22768;SDS011;13001;51.968;5.918;2023-04-24T10:12:21;598.28;;;556.50;;
22768;SDS011;13001;51.968;5.918;2023-04-24T10:14:51;618.10;;;576.37;;
22768;SDS011;13001;51.968;5.918;2023-04-24T10:17:19;548.42;;;512.12;;
22768;SDS011;13001;51.968;5.918;2023-04-24T10:19:47;775.92;;;718.08;;
22768;SDS011;13001;51.968;5.918;2023-04-24T10:22:15;817.92;;;756.23;;
22768;SDS011;13001;51.968;5.918;2023-04-24T10:24:43;856.25;;;791.10;;
22768;SDS011;13001;51.968;5.918;2023-04-24T10:27:11;834.95;;;770.90;;
22768;SDS011;13001;51.968;5.918;2023-04-24T10:29:41;887.43;;;817.07;;
22768;SDS011;13001;51.968;5.918;2023-04-24T10:32:11;948.42;;;870.77;;
22768;SDS011;13001;51.968;5.918;2023-04-24T10:34:38;973.93;;;890.30;;
22768;SDS011;13001;51.968;5.918;2023-04-24T10:37:05;932.53;;;853.25;;
22768;SDS011;13001;51.968;5.918;2023-04-24T10:39:33;949.23;;;868.85;;
22768;SDS011;13001;51.968;5.918;2023-04-24T10:42:01;898.93;;;826.25;;
22768;SDS011;13001;51.968;5.918;2023-04-24T10:44:35;893.67;;;821.48;;
22768;SDS011;13001;51.968;5.918;2023-04-24T10:46:57;877.73;;;807.58;;
22768;SDS011;13001;51.968;5.918;2023-04-24T10:49:28;906.27;;;832.35;;
22768;SDS011;13001;51.968;5.918;2023-04-24T10:51:59;922.00;;;845.35;;
22768;SDS011;13001;51.968;5.918;2023-04-24T10:54:25;926.42;;;847.87;;
22768;SDS011;13001;51.968;5.918;2023-04-24T10:57:25;986.17;;;903.42;;
22768;SDS011;13001;51.968;5.918;2023-04-24T10:59:27;888.65;;;814.93;;
22768;SDS011;13001;51.968;5.918;2023-04-24T11:01:54;929.65;;;852.15;;
22768;SDS011;13001;51.968;5.918;2023-04-24T11:04:41;983.42;;;899.30;;
22768;SDS011;13001;51.968;5.918;2023-04-24T11:06:55;980.20;;;897.75;;
22768;SDS011;13001;51.968;5.918;2023-04-24T11:09:23;970.20;;;890.13;;
22768;SDS011;13001;51.968;5.918;2023-04-24T11:12:10;974.27;;;894.20;;
22768;SDS011;13001;51.968;5.918;2023-04-24T11:14:24;962.70;;;883.77;;
22768;SDS011;13001;51.968;5.918;2023-04-24T11:16:51;949.92;;;872.65;;
22768;SDS011;13001;51.968;5.918;2023-04-24T11:19:23;942.53;;;864.63;;
22768;SDS011;13001;51.968;5.918;2023-04-24T11:22:03;940.00;;;864.03;;
22768;SDS011;13001;51.968;5.918;2023-04-24T11:29:38;892.70;;;823.83;;
22768;SDS011;13001;51.968;5.918;2023-04-24T11:32:40;861.50;;;795.25;;
22768;SDS011;13001;51.968;5.918;2023-04-24T11:34:40;789.55;;;730.45;;
22768;SDS011;13001;51.968;5.918;2023-04-24T11:37:08;810.28;;;748.78;;
22768;SDS011;13001;51.968;5.918;2023-04-24T11:39:38;774.00;;;716.25;;
22768;SDS011;13001;51.968;5.918;2023-04-24T11:42:05;789.97;;;730.27;;
22768;SDS011;13001;51.968;5.918;2023-04-24T11:44:34;843.60;;;778.73;;
22768;SDS011;13001;51.968;5.918;2023-04-24T11:47:04;841.15;;;776.42;;
22768;SDS011;13001;51.968;5.918;2023-04-24T11:49:32;781.10;;;722.55;;
22768;SDS011;13001;51.968;5.918;2023-04-24T11:51:59;779.55;;;720.45;;
22768;SDS011;13001;51.968;5.918;2023-04-24T11:54:28;762.35;;;705.08;;
22768;SDS011;13001;51.968;5.918;2023-04-24T11:56:56;782.30;;;723.08;;
22768;SDS011;13001;51.968;5.918;2023-04-24T11:59:23;735.45;;;681.65;;
22768;SDS011;13001;51.968;5.918;2023-04-24T12:01:51;747.58;;;692.50;;
22768;SDS011;13001;51.968;5.918;2023-04-24T12:04:18;773.90;;;715.98;;
22768;SDS011;13001;51.968;5.918;2023-04-24T12:07:01;804.72;;;743.92;;
22768;SDS011;13001;51.968;5.918;2023-04-24T12:09:28;856.60;;;790.75;;
22768;SDS011;13001;51.968;5.918;2023-04-24T12:11:56;872.17;;;805.10;;
22768;SDS011;13001;51.968;5.918;2023-04-24T12:14:23;847.45;;;779.87;;
22768;SDS011;13001;51.968;5.918;2023-04-24T12:16:51;793.83;;;730.10;;
22768;SDS011;13001;51.968;5.918;2023-04-24T12:21:58;609.87;;;565.70;;
22768;SDS011;13001;51.968;5.918;2023-04-24T12:24:15;742.80;;;689.23;;
22768;SDS011;13001;51.968;5.918;2023-04-24T12:26:42;722.57;;;670.43;;
22768;SDS011;13001;51.968;5.918;2023-04-24T12:29:09;770.67;;;713.48;;
22768;SDS011;13001;51.968;5.918;2023-04-24T12:31:38;815.62;;;753.60;;
22768;SDS011;13001;51.968;5.918;2023-04-24T12:34:17;852.60;;;786.92;;
22768;SDS011;13001;51.968;5.918;2023-04-24T12:36:35;846.50;;;781.30;;
22768;SDS011;13001;51.968;5.918;2023-04-24T12:39:02;864.87;;;799.48;;
22768;SDS011;13001;51.968;5.918;2023-04-24T12:41:30;865.80;;;799.75;;
22768;SDS011;13001;51.968;5.918;2023-04-24T12:43:57;878.90;;;811.63;;
22768;SDS011;13001;51.968;5.918;2023-04-24T12:46:25;814.90;;;753.73;;
22768;SDS011;13001;51.968;5.918;2023-04-24T12:48:52;815.67;;;754.27;;
22768;SDS011;13001;51.968;5.918;2023-04-24T12:51:19;788.52;;;730.08;;
22768;SDS011;13001;51.968;5.918;2023-04-24T12:53:46;770.92;;;714.50;;
22768;SDS011;13001;51.968;5.918;2023-04-24T12:56:14;845.80;;;781.73;;
22768;SDS011;13001;51.968;5.918;2023-04-24T12:58:41;880.18;;;812.33;;
22768;SDS011;13001;51.968;5.918;2023-04-24T13:01:08;850.20;;;785.25;;
22768;SDS011;13001;51.968;5.918;2023-04-24T13:03:36;834.58;;;771.95;;
22768;SDS011;13001;51.968;5.918;2023-04-24T13:06:03;849.80;;;785.17;;
22768;SDS011;13001;51.968;5.918;2023-04-24T13:08:30;890.27;;;821.97;;
22768;SDS011;13001;51.968;5.918;2023-04-24T13:10:58;895.88;;;827.58;;
22768;SDS011;13001;51.968;5.918;2023-04-24T13:13:25;801.15;;;741.20;;
22768;SDS011;13001;51.968;5.918;2023-04-24T13:15:52;798.62;;;738.85;;
22768;SDS011;13001;51.968;5.918;2023-04-24T13:18:20;861.93;;;795.63;;
22768;SDS011;13001;51.968;5.918;2023-04-24T13:20:47;789.35;;;730.17;;
22768;SDS011;13001;51.968;5.918;2023-04-24T13:23:14;787.72;;;729.17;;
22768;SDS011;13001;51.968;5.918;2023-04-24T13:25:43;748.28;;;693.95;;
22768;SDS011;13001;51.968;5.918;2023-04-24T13:28:10;709.63;;;659.30;;
22768;SDS011;13001;51.968;5.918;2023-04-24T13:30:37;753.60;;;699.00;;
22768;SDS011;13001;51.968;5.918;2023-04-24T13:33:05;737.42;;;684.60;;
22768;SDS011;13001;51.968;5.918;2023-04-24T13:35:32;764.10;;;708.93;;
22768;SDS011;13001;51.968;5.918;2023-04-24T13:37:59;801.80;;;742.37;;
22768;SDS011;13001;51.968;5.918;2023-04-24T13:40:27;795.52;;;736.77;;
22768;SDS011;13001;51.968;5.918;2023-04-24T13:42:54;788.67;;;730.65;;
22768;SDS011;13001;51.968;5.918;2023-04-24T13:45:21;761.53;;;706.00;;
22768;SDS011;13001;51.968;5.918;2023-04-24T13:47:49;771.10;;;714.80;;
22768;SDS011;13001;51.968;5.918;2023-04-24T13:50:18;788.67;;;730.35;;
22768;SDS011;13001;51.968;5.918;2023-04-24T13:52:45;802.87;;;742.43;;
22768;SDS011;13001;51.968;5.918;2023-04-24T13:55:12;784.27;;;725.72;;
22768;SDS011;13001;51.968;5.918;2023-04-24T13:57:39;734.67;;;681.45;;
22768;SDS011;13001;51.968;5.918;2023-04-24T14:00:07;756.00;;;700.55;;
22768;SDS011;13001;51.968;5.918;2023-04-24T14:02:36;767.37;;;710.87;;
22768;SDS011;13001;51.968;5.918;2023-04-24T14:05:03;753.92;;;699.17;;
22768;SDS011;13001;51.968;5.918;2023-04-24T14:07:32;727.85;;;675.72;;